createdAt,value
2019-04-11T00:00:53.514Z,90.08
2019-04-11T00:01:53.703Z,89.76
2019-04-11T00:02:53.880Z,89.55
2019-04-11T00:03:54.099Z,89.17
2019-04-11T00:04:54.651Z,89.90
2019-04-11T00:05:54.915Z,90.64
2019-04-11T00:06:54.631Z,90.53
2019-04-11T00:07:54.827Z,90.43
2019-04-11T00:08:55.003Z,91.06
2019-04-11T00:09:55.184Z,90.74
2019-04-11T00:10:55.604Z,90.43
2019-04-11T00:11:57.807Z,90.84
2019-04-11T00:12:56.922Z,89.90
2019-04-11T00:13:55.886Z,88.50
2019-04-11T00:14:56.096Z,88.40
2019-04-11T00:15:57.320Z,88.82
2019-04-11T00:16:57.382Z,88.92
2019-04-11T00:17:56.733Z,88.92
2019-04-11T00:18:56.959Z,88.82
2019-04-11T00:19:57.920Z,88.44
2019-04-11T00:20:58.258Z,88.50
2019-04-11T00:21:57.465Z,88.54
2019-04-11T00:22:57.744Z,89.28
2019-04-11T00:23:58.784Z,89.07
2019-04-11T00:24:58.920Z,89.80
2019-04-11T00:25:58.134Z,89.00
2019-04-11T00:27:00.336Z,89.11
2019-04-11T00:27:59.370Z,89.73
2019-04-11T00:28:58.720Z,90.26
2019-04-11T00:29:59.705Z,90.36
2019-04-11T00:30:59.175Z,90.05
2019-04-11T00:31:59.371Z,89.73
2019-04-11T00:33:00.173Z,90.47
2019-04-11T00:33:59.769Z,89.95
2019-04-11T00:34:59.952Z,90.58
2019-04-11T00:36:00.141Z,91.66
2019-04-11T00:37:00.982Z,91.46
2019-04-11T00:38:01.387Z,91.46
2019-04-11T00:39:01.407Z,90.72
2019-04-11T00:40:01.816Z,90.72
2019-04-11T00:41:01.667Z,91.08
2019-04-11T00:42:02.037Z,91.81
2019-04-11T00:43:01.503Z,91.71
2019-04-11T00:44:02.825Z,92.02
2019-04-11T00:45:01.915Z,92.02
2019-04-11T00:46:02.976Z,92.61
2019-04-11T00:47:02.329Z,92.82
2019-04-11T00:48:03.739Z,92.82
2019-04-11T00:49:02.680Z,91.98
2019-04-11T00:50:04.037Z,92.02
2019-04-11T00:51:04.126Z,92.02
2019-04-11T00:52:04.466Z,92.65
2019-04-11T00:53:03.645Z,91.66
2019-04-11T00:54:04.744Z,91.46
2019-04-11T00:55:04.984Z,91.98
2019-04-11T00:56:04.147Z,91.66
2019-04-11T00:57:04.445Z,92.19
2019-04-11T00:58:05.444Z,91.66
2019-04-11T00:59:05.767Z,91.87
2019-04-11T01:00:04.895Z,91.87
2019-04-11T01:01:04.958Z,91.35
2019-04-11T01:02:05.200Z,91.14
2019-04-11T01:03:06.539Z,91.66
2019-04-11T01:04:07.517Z,91.77
2019-04-11T01:05:05.626Z,91.98
2019-04-11T01:06:05.835Z,91.62
2019-04-11T01:07:06.850Z,92.08
2019-04-11T01:08:07.188Z,91.14
2019-04-11T01:09:06.467Z,91.77
2019-04-11T01:10:06.752Z,92.19
2019-04-11T01:11:07.800Z,91.87
2019-04-11T01:12:08.041Z,90.55
2019-04-11T01:13:07.199Z,91.18
2019-04-11T01:14:08.304Z,91.71
2019-04-11T01:15:07.498Z,92.23
2019-04-11T01:16:07.695Z,91.77
2019-04-11T01:17:07.898Z,91.56
2019-04-11T01:18:09.746Z,91.81
2019-04-11T01:19:08.768Z,92.02
2019-04-11T01:20:08.519Z,91.91
2019-04-11T01:21:08.722Z,92.38
2019-04-11T01:22:09.779Z,92.65
2019-04-11T01:23:09.012Z,93.07
2019-04-11T01:24:11.289Z,93.80
2019-04-11T01:25:10.474Z,93.49
2019-04-11T01:26:10.708Z,92.96
2019-04-11T01:27:09.868Z,92.96
2019-04-11T01:28:10.193Z,92.96
2019-04-11T01:29:11.233Z,92.65
2019-04-11T01:30:11.589Z,93.38
2019-04-11T01:31:11.566Z,93.11
2019-04-11T01:32:10.677Z,92.80
2019-04-11T01:33:10.916Z,92.90
2019-04-11T01:34:11.083Z,93.63
2019-04-11T01:35:11.270Z,93.63
2019-04-11T01:36:12.675Z,93.74
2019-04-11T01:37:12.697Z,93.70
2019-04-11T01:38:12.392Z,93.43
2019-04-11T01:39:12.640Z,93.17
2019-04-11T01:40:12.130Z,92.58
2019-04-11T01:41:12.308Z,92.96
2019-04-11T01:42:13.225Z,92.90
2019-04-11T01:43:13.555Z,92.48
2019-04-11T01:44:12.862Z,93.21
2019-04-11T01:45:13.565Z,93.01
2019-04-11T01:46:14.051Z,92.38
2019-04-11T01:47:13.502Z,92.69
2019-04-11T01:48:13.675Z,91.58
2019-04-11T01:49:14.315Z,93.11
2019-04-11T01:50:13.987Z,93.01
2019-04-11T01:51:14.172Z,93.01
2019-04-11T01:52:15.347Z,92.58
2019-04-11T01:53:15.144Z,93.11
2019-04-11T01:54:15.288Z,92.80
2019-04-11T01:55:14.850Z,93.63
2019-04-11T01:56:15.004Z,93.01
2019-04-11T01:57:15.871Z,92.58
2019-04-11T01:58:16.249Z,92.27
2019-04-11T01:59:15.480Z,92.94
2019-04-11T02:00:15.689Z,93.05
2019-04-11T02:01:16.818Z,93.57
2019-04-11T02:02:17.094Z,93.74
2019-04-11T02:03:17.105Z,93.68
2019-04-11T02:04:16.394Z,93.36
2019-04-11T02:05:16.741Z,93.36
2019-04-11T02:06:18.033Z,92.83
2019-04-11T02:07:18.491Z,92.83
2019-04-11T02:08:17.441Z,92.94
2019-04-11T02:09:17.417Z,92.77
2019-04-11T02:10:18.868Z,92.57
2019-04-11T02:11:17.855Z,92.42
2019-04-11T02:12:18.438Z,93.62
2019-04-11T02:13:19.500Z,93.26
2019-04-11T02:14:19.977Z,93.62
2019-04-11T02:15:19.835Z,94.83
2019-04-11T02:16:19.049Z,94.98
2019-04-11T02:17:19.922Z,95.08
2019-04-11T02:18:19.375Z,95.25
2019-04-11T02:19:20.318Z,95.25
2019-04-11T02:20:19.407Z,95.04
2019-04-11T02:21:19.885Z,94.83
2019-04-11T02:22:19.742Z,94.93
2019-04-11T02:23:20.137Z,94.62
2019-04-11T02:24:20.182Z,94.83
2019-04-11T02:25:20.532Z,93.78
2019-04-11T02:26:20.936Z,93.47
2019-04-11T02:27:21.113Z,93.68
2019-04-11T02:28:20.741Z,93.78
2019-04-11T02:29:21.403Z,93.09
2019-04-11T02:30:22.756Z,92.88
2019-04-11T02:31:22.849Z,92.73
2019-04-11T02:32:24.585Z,93.40
2019-04-11T02:33:24.798Z,93.68
2019-04-11T02:34:23.382Z,93.99
2019-04-11T02:35:23.964Z,94.83
2019-04-11T02:36:24.815Z,94.62
2019-04-11T02:37:24.076Z,94.10
2019-04-11T02:38:24.365Z,93.47
2019-04-11T02:39:24.629Z,93.57
2019-04-11T02:40:24.626Z,93.26
2019-04-11T02:41:23.061Z,93.05
2019-04-11T02:42:23.512Z,92.94
2019-04-11T02:43:25.638Z,92.94
2019-04-11T02:44:39.539Z,93.11
2019-04-11T02:45:40.836Z,93.11
2019-04-11T02:46:35.268Z,92.80
2019-04-11T02:47:31.228Z,92.80
2019-04-11T02:48:26.896Z,93.15
2019-04-11T02:49:25.726Z,93.32
2019-04-11T02:50:26.500Z,93.21
2019-04-11T02:51:26.998Z,92.63
2019-04-11T02:52:25.506Z,92.94
2019-04-11T02:53:28.154Z,92.10
2019-04-11T02:54:26.513Z,92.25
2019-04-11T02:55:27.756Z,92.67
2019-04-11T02:56:27.799Z,93.99
2019-04-11T02:57:27.290Z,94.45
2019-04-11T02:58:27.906Z,93.40
2019-04-11T02:59:27.428Z,93.93
2019-04-11T03:00:29.143Z,93.82
2019-04-11T03:01:28.290Z,94.04
2019-04-11T03:02:27.005Z,93.36
2019-04-11T03:03:27.449Z,93.88
2019-04-11T03:04:29.016Z,93.99
2019-04-11T03:05:28.975Z,93.99
2019-04-11T03:06:28.785Z,93.68
2019-04-11T03:07:29.866Z,93.78
2019-04-11T03:08:29.865Z,93.36
2019-04-11T03:09:31.022Z,93.93
2019-04-11T03:10:28.930Z,93.51
2019-04-11T03:11:30.318Z,92.99
2019-04-11T03:12:31.679Z,92.77
2019-04-11T03:13:29.458Z,92.25
2019-04-11T03:14:47.722Z,93.40
2019-04-11T03:15:44.661Z,92.67
2019-04-11T03:16:42.818Z,93.30
2019-04-11T03:17:36.767Z,91.97
2019-04-11T03:18:51.345Z,92.19
2019-04-11T03:19:43.956Z,92.29
2019-04-11T03:20:39.216Z,93.18
2019-04-11T03:21:36.676Z,93.70
2019-04-11T03:22:34.472Z,95.02
2019-04-11T03:23:33.210Z,95.23
2019-04-11T03:24:33.294Z,95.65
2019-04-11T03:25:33.021Z,95.86
2019-04-11T03:26:33.435Z,95.02
2019-04-11T03:27:32.520Z,94.92
2019-04-11T03:28:33.527Z,95.02
2019-04-11T03:29:33.752Z,95.44
2019-04-11T03:30:48.834Z,95.02
2019-04-11T03:32:14.372Z,93.97
2019-04-11T03:33:25.282Z,93.07
2019-04-11T03:35:23.308Z,93.87
2019-04-11T03:36:22.098Z,94.08
2019-04-11T03:37:19.370Z,94.92
2019-04-11T03:38:00.378Z,93.82
2019-04-11T03:38:55.088Z,93.44
2019-04-11T03:39:57.468Z,93.13
2019-04-11T03:40:57.757Z,92.82
2019-04-11T03:41:51.856Z,93.66
2019-04-11T03:42:52.388Z,93.28
2019-04-11T03:43:48.583Z,92.54
2019-04-11T03:44:42.733Z,93.70
2019-04-11T03:46:01.850Z,94.96
2019-04-11T03:46:52.711Z,95.48
2019-04-11T03:47:54.733Z,95.38
2019-04-11T03:48:51.206Z,95.38
2019-04-11T03:49:44.851Z,95.90
2019-04-11T03:50:39.391Z,96.22
2019-04-11T03:51:38.391Z,95.70
2019-04-11T03:52:37.610Z,95.59
2019-04-11T03:53:37.332Z,95.86
2019-04-11T03:54:38.946Z,95.38
2019-04-11T03:55:37.134Z,94.75
2019-04-11T03:56:37.628Z,95.76
2019-04-11T03:57:39.430Z,95.48
2019-04-11T03:58:39.551Z,95.76
2019-04-11T03:59:39.032Z,95.38
2019-04-11T04:00:43.116Z,94.65
2019-04-11T04:01:40.196Z,95.06
2019-04-11T04:02:41.153Z,95.38
2019-04-11T04:03:39.280Z,95.44
2019-04-11T04:04:41.397Z,95.59
2019-04-11T04:05:39.727Z,95.70
2019-04-11T04:06:41.503Z,96.22
2019-04-11T04:07:40.329Z,95.80
2019-04-11T04:08:39.810Z,96.01
2019-04-11T04:09:40.365Z,96.22
2019-04-11T04:10:41.781Z,96.12
2019-04-11T04:11:41.365Z,95.76
2019-04-11T04:12:40.403Z,95.34
2019-04-11T04:13:42.711Z,95.17
2019-04-11T04:14:42.848Z,95.38
2019-04-11T04:15:55.847Z,95.38
2019-04-11T04:16:47.694Z,95.23
2019-04-11T04:17:43.538Z,94.96
2019-04-11T04:18:41.361Z,94.96
2019-04-11T04:19:41.557Z,95.10
2019-04-11T04:20:42.403Z,94.85
2019-04-11T04:21:43.083Z,94.85
2019-04-11T04:22:45.628Z,95.28
2019-04-11T04:23:43.248Z,95.06
2019-04-11T04:24:44.354Z,94.96
2019-04-11T04:25:47.058Z,95.38
2019-04-11T04:26:43.213Z,94.90
2019-04-11T04:27:45.094Z,95.10
2019-04-11T04:28:43.180Z,94.85
2019-04-11T04:29:47.309Z,95.80
2019-04-11T04:30:46.978Z,96.01
2019-04-11T04:31:44.746Z,95.84
2019-04-11T04:32:45.187Z,95.10
2019-04-11T04:33:45.470Z,95.10
2019-04-11T04:34:44.900Z,94.79
2019-04-11T04:35:45.457Z,95.32
2019-04-11T04:36:44.632Z,95.74
2019-04-11T04:37:45.385Z,95.84
2019-04-11T04:38:46.457Z,96.16
2019-04-11T04:39:47.831Z,95.42
2019-04-11T04:41:00.734Z,95.10
2019-04-11T04:41:55.358Z,96.10
2019-04-11T04:42:51.008Z,96.47
2019-04-11T04:43:48.420Z,96.16
2019-04-11T04:44:46.678Z,96.05
2019-04-11T04:46:07.428Z,96.89
2019-04-11T04:47:01.651Z,97.11
2019-04-11T04:47:54.851Z,96.33
2019-04-11T04:48:51.031Z,96.05
2019-04-11T04:49:48.213Z,96.47
2019-04-11T04:50:48.771Z,95.74
2019-04-11T04:51:47.834Z,95.21
2019-04-11T04:52:49.142Z,95.74
2019-04-11T04:53:50.207Z,95.64
2019-04-11T04:54:48.541Z,95.74
2019-04-11T04:55:50.214Z,96.16
2019-04-11T04:56:50.342Z,95.84
2019-04-11T04:57:48.823Z,96.37
2019-04-11T04:58:50.668Z,97.38
2019-04-11T04:59:49.919Z,95.70
2019-04-11T05:00:51.417Z,95.90
2019-04-11T05:01:50.748Z,94.96
2019-04-11T05:02:50.330Z,94.75
2019-04-11T05:03:50.951Z,95.10
2019-04-11T05:04:49.813Z,94.06
2019-04-11T05:05:50.985Z,94.96
2019-04-11T05:06:52.213Z,94.75
2019-04-11T05:07:51.961Z,95.28
2019-04-11T05:08:51.496Z,94.65
2019-04-11T05:09:51.903Z,95.70
2019-04-11T05:10:51.337Z,96.43
2019-04-11T05:11:53.012Z,94.96
2019-04-11T05:12:51.432Z,95.06
2019-04-11T05:13:52.388Z,94.92
2019-04-11T05:14:51.948Z,95.02
2019-04-11T05:16:05.730Z,95.54
2019-04-11T05:16:54.627Z,95.06
2019-04-11T05:17:53.321Z,94.18
2019-04-11T05:18:52.617Z,94.23
2019-04-11T05:19:54.428Z,93.87
2019-04-11T05:20:52.845Z,93.66
2019-04-11T05:21:54.048Z,94.18
2019-04-11T05:22:53.151Z,93.97
2019-04-11T05:23:54.227Z,94.18
2019-04-11T05:24:53.951Z,95.13
2019-04-11T05:25:53.641Z,94.98
2019-04-11T05:26:53.831Z,95.08
2019-04-11T05:27:54.119Z,94.35
2019-04-11T05:28:55.222Z,94.04
2019-04-11T05:29:54.320Z,93.93
2019-04-11T05:30:55.300Z,93.72
2019-04-11T05:31:54.720Z,93.15
2019-04-11T05:32:55.726Z,93.36
2019-04-11T05:33:56.042Z,93.36
2019-04-11T05:34:55.241Z,92.73
2019-04-11T05:35:56.367Z,93.36
2019-04-11T05:36:55.555Z,92.80
2019-04-11T05:37:57.813Z,93.11
2019-04-11T05:38:55.967Z,93.01
2019-04-11T05:39:56.722Z,92.16
2019-04-11T05:40:56.679Z,92.86
2019-04-11T05:41:56.768Z,92.23
2019-04-11T05:42:57.688Z,91.71
2019-04-11T05:44:01.895Z,92.08
2019-04-11T05:44:59.028Z,91.98
2019-04-11T05:45:58.353Z,91.03
2019-04-11T05:47:01.942Z,91.24
2019-04-11T05:47:58.425Z,91.66
2019-04-11T05:49:00.622Z,91.66
2019-04-11T05:49:59.005Z,91.60
2019-04-11T05:50:58.288Z,91.87
2019-04-11T05:51:58.895Z,91.66
2019-04-11T05:53:00.065Z,91.98
2019-04-11T05:54:01.950Z,91.71
2019-04-11T05:55:00.717Z,91.98
2019-04-11T05:55:59.421Z,91.71
2019-04-11T05:56:59.531Z,91.81
2019-04-11T05:57:59.076Z,92.08
2019-04-11T05:58:59.842Z,91.87
2019-04-11T05:59:59.418Z,92.19
2019-04-11T06:00:59.724Z,92.04
2019-04-11T06:02:05.231Z,91.41
2019-04-11T06:03:01.917Z,90.16
2019-04-11T06:04:00.432Z,89.84
2019-04-11T06:05:02.722Z,88.90
2019-04-11T06:06:01.790Z,88.96
2019-04-11T06:07:01.652Z,88.54
2019-04-11T06:08:00.829Z,88.71
2019-04-11T06:09:02.150Z,87.81
2019-04-11T06:10:07.094Z,88.09
2019-04-11T06:11:03.875Z,88.82
2019-04-11T06:12:03.328Z,87.73
2019-04-11T06:13:02.516Z,87.52
2019-04-11T06:14:03.809Z,87.00
2019-04-11T06:15:03.952Z,87.84
2019-04-11T06:16:02.880Z,88.21
2019-04-11T06:17:03.377Z,87.59
2019-04-11T06:18:02.834Z,87.80
2019-04-11T06:19:03.900Z,87.34
2019-04-11T06:20:03.963Z,87.45
2019-04-11T06:21:03.966Z,87.38
2019-04-11T06:22:03.135Z,87.13
2019-04-11T06:23:04.666Z,85.42
2019-04-11T06:24:04.531Z,84.89
2019-04-11T06:25:04.111Z,84.79
2019-04-11T06:26:06.104Z,83.40
2019-04-11T06:27:04.096Z,84.75
2019-04-11T06:28:06.230Z,83.57
2019-04-11T06:29:14.649Z,83.15
2019-04-11T06:30:07.493Z,82.80
2019-04-11T06:31:06.068Z,82.07
2019-04-11T06:32:05.647Z,82.87
2019-04-11T06:33:04.920Z,82.55
2019-04-11T06:34:05.090Z,82.76
2019-04-11T06:35:06.096Z,81.82
2019-04-11T06:36:05.424Z,80.99
2019-04-11T06:37:05.702Z,80.33
2019-04-11T06:38:06.041Z,78.83
2019-04-11T06:39:07.174Z,78.20
2019-04-11T06:40:06.085Z,77.96
2019-04-11T06:41:06.354Z,76.43
2019-04-11T06:42:07.498Z,77.10
2019-04-11T06:43:07.569Z,78.07
2019-04-11T06:44:06.916Z,78.38
2019-04-11T06:45:09.222Z,79.57
2019-04-11T06:46:07.183Z,78.66
2019-04-11T06:47:08.362Z,76.26
2019-04-11T06:48:09.398Z,77.48
2019-04-11T06:49:09.656Z,77.44
2019-04-11T06:50:09.007Z,74.01
2019-04-11T06:51:08.167Z,76.20
2019-04-11T06:52:08.533Z,75.43
2019-04-11T06:53:08.978Z,75.12
2019-04-11T06:54:08.555Z,76.06
2019-04-11T06:55:08.829Z,75.71
2019-04-11T06:56:08.920Z,74.60
2019-04-11T06:57:09.673Z,74.88
2019-04-11T06:58:09.277Z,74.77
2019-04-11T06:59:10.146Z,75.78
2019-04-11T07:00:09.603Z,74.53
2019-04-11T07:01:09.870Z,74.11
2019-04-11T07:02:16.334Z,74.35
2019-04-11T07:03:20.659Z,75.78
2019-04-11T07:04:13.261Z,75.98
2019-04-11T07:05:10.755Z,74.43
2019-04-11T07:06:11.592Z,73.91
2019-04-11T07:07:11.082Z,73.60
2019-04-11T07:08:11.920Z,75.98
2019-04-11T07:09:11.059Z,74.01
2019-04-11T07:10:11.706Z,74.43
2019-04-11T07:11:11.467Z,75.98
2019-04-11T07:12:11.664Z,76.47
2019-04-11T07:13:12.090Z,76.09
2019-04-11T07:14:12.477Z,74.29
2019-04-11T07:15:12.295Z,76.57
2019-04-11T07:16:13.310Z,76.12
2019-04-11T07:17:13.737Z,76.85
2019-04-11T07:18:14.018Z,73.74
2019-04-11T07:19:13.441Z,74.18
2019-04-11T07:20:13.207Z,73.77
2019-04-11T07:21:13.385Z,75.40
2019-04-11T07:22:13.589Z,74.49
2019-04-11T07:23:13.777Z,76.02
2019-04-11T07:24:13.987Z,73.74
2019-04-11T07:25:14.620Z,72.42
2019-04-11T07:26:14.431Z,72.94
2019-04-11T07:27:14.486Z,72.21
2019-04-11T07:28:14.668Z,73.25
2019-04-11T07:29:15.281Z,73.97
2019-04-11T07:30:15.733Z,72.83
2019-04-11T07:31:15.160Z,73.35
2019-04-11T07:32:16.155Z,74.57
2019-04-11T07:33:16.430Z,72.00
2019-04-11T07:34:16.941Z,72.42
2019-04-11T07:35:17.250Z,72.07
2019-04-11T07:36:15.981Z,73.60
2019-04-11T07:37:16.132Z,74.01
2019-04-11T07:38:16.305Z,74.08
2019-04-11T07:39:17.542Z,74.29
2019-04-11T07:40:17.854Z,72.84
2019-04-11T07:41:17.409Z,72.32
2019-04-11T07:42:18.196Z,71.28
2019-04-11T07:43:18.454Z,71.25
2019-04-11T07:44:19.387Z,70.04
2019-04-11T07:45:17.479Z,71.25
2019-04-11T07:46:18.640Z,70.10
2019-04-11T07:47:21.578Z,72.80
2019-04-11T07:48:19.885Z,69.07
2019-04-11T07:49:18.115Z,70.10
2019-04-11T07:50:19.747Z,69.14
2019-04-11T07:51:19.641Z,70.18
2019-04-11T07:52:20.439Z,68.59
2019-04-11T07:53:19.709Z,68.52
2019-04-11T07:54:20.153Z,69.97
2019-04-11T07:55:19.230Z,68.83
2019-04-11T07:56:19.409Z,69.14
2019-04-11T07:57:19.573Z,69.24
2019-04-11T07:58:19.747Z,69.84
2019-04-11T07:59:19.916Z,69.80
2019-04-11T08:00:33.235Z,69.77
2019-04-11T08:01:21.243Z,65.70
2019-04-11T08:02:21.469Z,66.50
2019-04-11T08:03:21.401Z,65.95
2019-04-11T08:04:21.645Z,66.10
2019-04-11T08:05:21.503Z,66.10
2019-04-11T08:06:22.230Z,66.38
2019-04-11T08:07:22.165Z,64.62
2019-04-11T08:08:21.585Z,65.03
2019-04-11T08:09:22.158Z,66.38
2019-04-11T08:10:22.815Z,65.94
2019-04-11T08:11:23.319Z,65.80
2019-04-11T08:12:23.462Z,60.93
2019-04-11T08:13:22.682Z,63.03
2019-04-11T08:14:24.508Z,60.63
2019-04-11T08:15:23.786Z,61.12
2019-04-11T08:16:23.941Z,61.22
2019-04-11T08:17:30.908Z,59.89
2019-04-11T08:18:26.405Z,60.07
2019-04-11T08:19:24.677Z,63.64
2019-04-11T08:20:25.642Z,63.74
2019-04-11T08:21:24.005Z,62.63
2019-04-11T08:22:25.135Z,64.93
2019-04-11T08:23:24.242Z,65.55
2019-04-11T08:24:26.919Z,64.80
2019-04-11T08:25:25.515Z,64.87
2019-04-11T08:26:24.647Z,66.70
2019-04-11T08:27:25.799Z,65.09
2019-04-11T08:28:24.958Z,62.66
2019-04-11T08:29:27.012Z,59.34
2019-04-11T08:30:25.286Z,58.95
2019-04-11T08:31:26.447Z,55.23
2019-04-11T08:32:25.675Z,54.66
2019-04-11T08:33:26.749Z,56.30
2019-04-11T08:34:27.003Z,53.31
2019-04-11T08:35:26.321Z,52.85
2019-04-11T08:36:27.355Z,49.42
2019-04-11T08:37:27.574Z,51.54
2019-04-11T08:38:26.773Z,48.30
2019-04-11T08:39:29.021Z,50.52
2019-04-11T08:40:28.120Z,48.71
2019-04-11T08:41:27.452Z,53.18
2019-04-11T08:42:29.568Z,52.31
2019-04-11T08:43:27.505Z,51.47
2019-04-11T08:44:28.061Z,51.83
2019-04-11T08:45:27.912Z,50.01
2019-04-11T08:46:28.975Z,48.48
2019-04-11T08:47:40.209Z,50.22
2019-04-11T08:48:30.437Z,49.09
2019-04-11T08:49:29.974Z,50.34
2019-04-11T08:50:30.340Z,51.24
2019-04-11T08:51:29.430Z,49.91
2019-04-11T08:52:29.797Z,49.81
2019-04-11T08:53:29.245Z,50.04
2019-04-11T08:54:29.449Z,52.67
2019-04-11T08:55:42.172Z,50.91
2019-04-11T08:56:31.346Z,49.68
2019-04-11T08:57:30.002Z,50.42
2019-04-11T08:58:30.957Z,50.14
2019-04-11T08:59:30.383Z,50.18
2019-04-11T09:00:32.731Z,54.00
2019-04-11T09:01:31.890Z,55.66
2019-04-11T09:02:31.166Z,49.80
2019-04-11T09:03:31.450Z,48.96
2019-04-11T09:04:32.353Z,47.77
2019-04-11T09:05:31.577Z,50.26
2019-04-11T09:06:32.609Z,50.96
2019-04-11T09:07:31.969Z,46.41
2019-04-11T09:08:32.306Z,45.25
2019-04-11T09:09:33.369Z,46.43
2019-04-11T09:10:33.702Z,45.51
2019-04-11T09:11:33.083Z,45.69
2019-04-11T09:12:32.827Z,41.94
2019-04-11T09:13:33.523Z,44.78
2019-04-11T09:14:33.139Z,45.28
2019-04-11T09:15:33.309Z,42.41
2019-04-11T09:16:34.008Z,42.08
2019-04-11T09:17:34.495Z,38.90
2019-04-11T09:18:34.373Z,40.77
2019-04-11T09:19:34.799Z,42.57
2019-04-11T09:20:34.302Z,43.53
2019-04-11T09:21:34.474Z,42.86
2019-04-11T09:22:35.361Z,39.78
2019-04-11T09:23:35.716Z,38.85
2019-04-11T09:24:35.049Z,38.54
2019-04-11T09:25:35.217Z,40.30
2019-04-11T09:26:36.070Z,42.02
2019-04-11T09:27:36.522Z,40.39
2019-04-11T09:28:35.861Z,42.49
2019-04-11T09:29:36.025Z,42.83
2019-04-11T09:30:36.850Z,44.96
2019-04-11T09:31:37.871Z,42.77
2019-04-11T09:32:36.579Z,40.78
2019-04-11T09:33:38.032Z,42.21
2019-04-11T09:34:37.689Z,45.24
2019-04-11T09:35:37.424Z,42.80
2019-04-11T09:36:37.360Z,41.89
2019-04-11T09:37:37.900Z,45.49
2019-04-11T09:38:38.166Z,47.55
2019-04-11T09:39:39.229Z,45.49
2019-04-11T09:40:38.173Z,45.28
2019-04-11T09:41:38.702Z,45.69
2019-04-11T09:42:38.749Z,48.44
2019-04-11T09:43:40.110Z,47.81
2019-04-11T09:44:39.303Z,43.44
2019-04-11T09:45:38.992Z,45.78
2019-04-11T09:46:39.162Z,44.85
2019-04-11T09:47:40.404Z,45.06
2019-04-11T09:48:39.994Z,45.63
2019-04-11T09:49:39.760Z,46.51
2019-04-11T09:50:40.598Z,44.26
2019-04-11T09:51:40.385Z,43.94
2019-04-11T09:52:41.377Z,42.12
2019-04-11T09:53:41.017Z,44.37
2019-04-11T09:54:40.655Z,43.02
2019-04-11T09:55:41.708Z,39.64
2019-04-11T09:56:40.975Z,40.05
2019-04-11T09:57:41.936Z,42.41
2019-04-11T09:58:42.122Z,43.16
2019-04-11T09:59:41.474Z,43.65
2019-04-11T10:00:41.647Z,38.34
2019-04-11T10:01:42.983Z,39.97
2019-04-11T10:02:42.017Z,40.17
2019-04-11T10:03:43.013Z,40.01
2019-04-11T10:04:42.320Z,39.91
2019-04-11T10:05:42.697Z,37.64
2019-04-11T10:06:44.585Z,36.02
2019-04-11T10:07:44.031Z,36.24
2019-04-11T10:08:43.705Z,36.75
2019-04-11T10:09:44.104Z,38.72
2019-04-11T10:10:44.611Z,36.12
2019-04-11T10:11:44.457Z,37.59
2019-04-11T10:12:44.616Z,37.35
2019-04-11T10:13:44.943Z,36.69
2019-04-11T10:14:44.036Z,35.57
2019-04-11T10:15:45.250Z,38.12
2019-04-11T10:16:46.501Z,38.23
2019-04-11T10:17:44.674Z,39.81
2019-04-11T10:18:44.866Z,43.63
2019-04-11T10:19:46.276Z,40.12
2019-04-11T10:20:45.572Z,38.71
2019-04-11T10:21:45.738Z,37.54
2019-04-11T10:22:45.996Z,35.82
2019-04-11T10:23:47.070Z,36.16
2019-04-11T10:24:46.326Z,40.73
2019-04-11T10:25:46.068Z,42.20
2019-04-11T10:26:46.250Z,45.20
2019-04-11T10:27:46.995Z,43.14
2019-04-11T10:28:46.648Z,40.50
2019-04-11T10:29:46.802Z,40.20
2019-04-11T10:30:48.145Z,37.95
2019-04-11T10:31:47.540Z,35.46
2019-04-11T10:32:47.616Z,35.02
2019-04-11T10:33:48.915Z,34.77
2019-04-11T10:34:47.930Z,37.72
2019-04-11T10:35:48.323Z,41.98
2019-04-11T10:36:49.474Z,35.42
2019-04-11T10:37:48.288Z,36.93
2019-04-11T10:38:48.842Z,38.93
2019-04-11T10:39:49.261Z,35.95
2019-04-11T10:40:48.817Z,32.76
2019-04-11T10:41:49.223Z,32.34
2019-04-11T10:42:50.237Z,33.43
2019-04-11T10:43:49.592Z,34.29
2019-04-11T10:44:50.921Z,36.04
2019-04-11T10:45:51.014Z,35.47
2019-04-11T10:46:50.043Z,39.42
2019-04-11T10:47:51.074Z,40.50
2019-04-11T10:48:50.434Z,40.38
2019-04-11T10:49:52.555Z,40.23
2019-04-11T10:50:50.791Z,37.60
2019-04-11T10:51:50.981Z,38.62
2019-04-11T10:52:51.158Z,38.09
2019-04-11T10:53:51.322Z,40.62
2019-04-11T10:54:53.295Z,42.36
2019-04-11T10:55:51.800Z,40.35
2019-04-11T10:56:51.891Z,43.02
2019-04-11T10:57:52.158Z,41.85
2019-04-11T10:58:53.163Z,38.04
2019-04-11T10:59:52.468Z,37.95
2019-04-11T11:00:53.621Z,34.22
2019-04-11T11:01:52.839Z,34.05
2019-04-11T11:02:53.640Z,32.09
2019-04-11T11:03:53.492Z,32.38
2019-04-11T11:04:53.685Z,29.95
2019-04-11T11:05:53.575Z,29.58
2019-04-11T11:06:53.898Z,31.71
2019-04-11T11:07:54.861Z,33.09
2019-04-11T11:08:54.131Z,31.68
2019-04-11T11:09:54.660Z,29.69
2019-04-11T11:10:55.563Z,34.17
2019-04-11T11:11:54.884Z,34.89
2019-04-11T11:12:54.897Z,34.01
2019-04-11T11:13:56.262Z,32.45
2019-04-11T11:14:55.410Z,34.22
2019-04-11T11:15:56.390Z,31.34
2019-04-11T11:16:56.544Z,32.41
2019-04-11T11:18:27.877Z,30.91
2019-04-11T11:19:25.979Z,31.64
2019-04-11T11:20:10.622Z,32.44
2019-04-11T11:21:00.826Z,32.64
2019-04-11T11:22:00.448Z,32.56
2019-04-11T11:22:57.618Z,35.80
2019-04-11T11:23:57.075Z,38.00
2019-04-11T11:24:57.991Z,35.29
2019-04-11T11:25:58.450Z,37.89
2019-04-11T11:26:58.764Z,34.43
2019-04-11T11:27:57.938Z,32.14
2019-04-11T11:28:57.572Z,31.52
2019-04-11T11:29:58.224Z,30.34
2019-04-11T11:30:58.458Z,31.15
2019-04-11T11:31:58.125Z,30.46
2019-04-11T11:32:58.337Z,33.78
2019-04-11T11:33:58.864Z,32.33
2019-04-11T11:34:59.691Z,33.05
2019-04-11T11:36:01.103Z,30.93
2019-04-11T11:37:00.664Z,31.05
2019-04-11T11:37:59.730Z,35.55
2019-04-11T11:39:00.337Z,34.33
2019-04-11T11:40:04.424Z,35.41
2019-04-11T11:41:00.792Z,37.46
2019-04-11T11:41:59.943Z,35.94
2019-04-11T11:43:00.977Z,36.61
2019-04-11T11:44:00.354Z,37.05
2019-04-11T11:45:02.380Z,36.29
2019-04-11T11:46:00.923Z,36.46
2019-04-11T11:47:03.524Z,38.93
2019-04-11T11:48:02.055Z,38.58
2019-04-11T11:49:02.731Z,36.29
2019-04-11T11:50:04.353Z,34.95
2019-04-11T11:51:03.366Z,33.29
2019-04-11T11:52:03.016Z,31.56
2019-04-11T11:53:08.215Z,36.02
2019-04-11T11:54:03.130Z,35.39
2019-04-11T11:55:02.292Z,33.69
2019-04-11T11:56:03.482Z,34.38
2019-04-11T11:57:02.626Z,32.41
2019-04-11T11:58:03.428Z,35.09
2019-04-11T11:59:03.027Z,32.79
2019-04-11T12:00:03.199Z,34.34
2019-04-11T12:01:08.487Z,31.58
2019-04-11T12:02:06.437Z,31.43
2019-04-11T12:03:03.832Z,30.13
2019-04-11T12:04:04.920Z,29.34
2019-04-11T12:05:08.896Z,31.13
2019-04-11T12:06:07.247Z,32.76
2019-04-11T12:07:06.010Z,34.94
2019-04-11T12:08:08.764Z,33.77
2019-04-11T12:09:06.515Z,31.41
2019-04-11T12:10:05.095Z,32.79
2019-04-11T12:11:06.036Z,33.33
2019-04-11T12:12:06.462Z,29.88
2019-04-11T12:13:08.527Z,30.22
2019-04-11T12:14:07.807Z,28.28
2019-04-11T12:15:05.968Z,29.75
2019-04-11T12:16:06.156Z,26.41
2019-04-11T12:17:06.792Z,27.63
2019-04-11T12:18:09.545Z,30.05
2019-04-11T12:19:06.789Z,29.53
2019-04-11T12:20:11.608Z,28.32
2019-04-11T12:21:09.437Z,30.46
2019-04-11T12:22:08.335Z,27.20
2019-04-11T12:23:07.407Z,28.00
2019-04-11T12:24:08.519Z,29.67
2019-04-11T12:25:09.197Z,30.35
2019-04-11T12:26:10.561Z,29.63
2019-04-11T12:27:09.784Z,33.13
2019-04-11T12:28:13.214Z,29.83
2019-04-11T12:29:10.572Z,28.91
2019-04-11T12:30:10.373Z,30.32
2019-04-11T12:31:09.858Z,29.69
2019-04-11T12:32:10.353Z,29.75
2019-04-11T12:33:09.148Z,28.25
2019-04-11T12:34:10.278Z,26.54
2019-04-11T12:35:09.486Z,29.47
2019-04-11T12:36:09.901Z,26.70
2019-04-11T12:37:10.900Z,26.71
2019-04-11T12:38:10.053Z,26.09
2019-04-11T12:39:10.260Z,26.70
2019-04-11T12:40:10.451Z,27.23
2019-04-11T12:41:10.668Z,27.18
2019-04-11T12:42:10.848Z,31.49
2019-04-11T12:43:11.053Z,31.12
2019-04-11T12:44:11.235Z,30.28
2019-04-11T12:45:11.386Z,29.86
2019-04-11T12:46:11.535Z,30.74
2019-04-11T12:47:11.747Z,29.99
2019-04-11T12:48:12.626Z,29.46
2019-04-11T12:49:13.076Z,28.16
2019-04-11T12:50:12.253Z,30.91
2019-04-11T12:51:12.442Z,32.69
2019-04-11T12:52:12.650Z,35.49
2019-04-11T12:53:12.842Z,36.36
2019-04-11T12:54:13.019Z,38.01
2019-04-11T12:55:13.216Z,38.27
2019-04-11T12:56:13.394Z,40.70